Frenchglen, OR (97736)

8:07 AM PST on December 09, 2016 (GMT -0800)
Burns Municipal | | Change Station

Elev 4170 ft 43.60 °N, 118.96 °W | Updated 14 minutes ago

Overcast
Overcast
25 °F
Feels Like 25 °F
N
0
Wind Variable Wind from North

Today
High -- | Low -- °F
--% Chance of Precip.
Yesterday
High -- | Low -- °F
Precip. -- in
Pressure 30.15 in
Visibility 10.0 miles
Clouds Mostly Cloudy 4700 ft
Mostly Cloudy 8000 ft
Overcast 11000 ft
Dew Point 23 °F
Humidity 92%
Rainfall 0.01 in
Snow Depth Not available.
7:16 AM 4:22 PM
Waxing Gibbous, 75% visible
METAR KBNO 091553Z AUTO 00000KT 10SM BKN047 BKN080 OVC110 M04/M05 A3005 RMK AO2 SLP210 T10391050
Pressure 30.15 in
Visibility 10.0 miles
Clouds Mostly Cloudy 4700 ft
Mostly Cloudy 8000 ft
Overcast 11000 ft
Dew Point 23 °F
Humidity 92%
Rainfall 0.01 in
Snow Depth Not available.
7:16 AM 4:22 PM
Waxing Gibbous, 75% visible
METAR KBNO 091553Z AUTO 00000KT 10SM BKN047 BKN080 OVC110 M04/M05 A3005 RMK AO2 SLP210 T10391050

10-Day Weather Forecast

Almanac

Astronomy

Dec. 09, 2016 Rise Set
Actual Time
Civil Twilight
Nautical Twilight
Astronomical Twilight
Moon
Length of Visible Light
Length of Day
Tomorrow will be .
, % of the Moon is Illuminated

Today's Extremes

State Highs State Lows

Community

WunderPhotos

Upload Photos

1,956,462 photos uploaded!

WunderBlog® & News

Nearby

Air Quality

  Air Quality AQ Index Pollutant
Not available.

Snow Depth

Station Depth Elevation

Earthquake Activity

City Distance Mag. Time & Date
Minimum magnitude displayed is 2.5.

Coastal Water Temperatures

Place Temperature

Stations

Nearby Weather Stations

Station Location Temp. Windchill Dew Point Humidity Wind Precip. Elev Updated Type
                   

Watches & Warnings

There are currently no watches in effect.